Time;durP1;ratioP1;P1;durP2;ratioP2;P2;SDS_P1;SDS_P2;PMS_P1;PMS_P2;Temp;Humidity;BMP_temperature;BMP_pressure;BME280_temperature;BME280_humidity;BME280_pressure;Samples;Min_cycle;Max_cycle;Signal;HPM_P1;HPM_P2
2022/07/16 00:04:29;;;;;;;5.70;2.50;;;;;;;19.98;38.72;98365.72;8381482;28;20227;-75
2022/07/16 00:08:33;;;;;;;6.30;2.77;;;;;;;19.89;38.79;98364.63;8381440;28;20282;-76
2022/07/16 00:12:35;;;;;;;4.53;2.67;;;;;;;19.81;39.33;98358.28;8381366;28;20242;-76
2022/07/16 00:16:40;;;;;;;6.30;2.90;;;;;;;19.80;39.22;98356.59;8381099;28;20239;-76
2022/07/16 00:20:43;;;;;;;9.67;2.77;;;;;;;19.67;39.64;98346.19;8380833;28;20231;-75
2022/07/16 00:24:45;;;;;;;4.87;2.43;;;;;;;19.62;40.00;98354.38;8380837;28;20545;-75
2022/07/16 00:28:48;;;;;;;6.93;2.80;;;;;;;19.63;40.03;98349.97;8380229;28;20227;-75
2022/07/16 00:32:52;;;;;;;8.33;3.10;;;;;;;19.56;40.48;98348.78;8380457;28;20228;-76
2022/07/16 00:36:55;;;;;;;5.93;3.00;;;;;;;19.53;40.35;98350.69;8380597;28;20242;-75
2022/07/16 00:40:58;;;;;;;10.23;2.80;;;;;;;19.52;40.40;98349.00;8380326;28;20588;-76
2022/07/16 00:45:01;;;;;;;5.33;2.80;;;;;;;19.44;40.43;98343.47;8380413;28;20432;-75
2022/07/16 00:49:06;;;;;;;7.90;2.93;;;;;;;19.30;40.69;98344.50;8380180;28;20277;-75
2022/07/16 00:53:10;;;;;;;7.50;2.87;;;;;;;19.28;40.41;98350.81;8380516;28;20223;-75
2022/07/16 00:57:13;;;;;;;6.33;2.80;;;;;;;19.22;40.49;98353.91;8380267;28;20233;-76
2022/07/16 01:01:17;;;;;;;11.07;3.23;;;;;;;19.19;40.81;98349.72;8411718;28;20295;-75
2022/07/16 01:05:21;;;;;;;6.70;3.03;;;;;;;19.10;40.85;98353.84;8413505;28;20226;-76
2022/07/16 01:09:26;;;;;;;6.93;3.40;;;;;;;18.95;41.25;98355.81;8416707;28;20233;-76
2022/07/16 01:13:29;;;;;;;7.07;2.90;;;;;;;18.86;41.25;98345.97;8419650;28;20226;-75
2022/07/16 01:17:33;;;;;;;6.10;3.23;;;;;;;18.93;41.41;98349.81;8419838;28;20229;-76
2022/07/16 01:21:37;;;;;;;6.23;3.33;;;;;;;18.80;41.77;98346.41;8419350;28;20239;-76
2022/07/16 01:25:41;;;;;;;4.97;3.10;;;;;;;18.84;41.67;98347.03;8419433;28;20253;-75
2022/07/16 01:29:44;;;;;;;7.13;3.20;;;;;;;18.87;41.32;98355.53;8419175;28;20235;-76
2022/07/16 01:34:24;;;;;;;5.40;3.00;;;;;;;18.82;41.54;98357.63;8419165;28;20235;-76
2022/07/16 01:38:11;;;;;;;7.80;3.27;;;;;;;18.79;41.91;98351.72;8418596;28;20222;-76
2022/07/16 01:42:15;;;;;;;5.03;3.10;;;;;;;18.67;42.07;98354.28;8418886;28;20233;-76
2022/07/16 01:46:18;;;;;;;4.53;3.40;;;;;;;18.67;41.93;98350.84;8418584;28;20218;-76
2022/07/16 01:50:21;;;;;;;6.13;3.20;;;;;;;18.60;42.08;98342.59;8418464;28;20234;-75
2022/07/16 01:54:24;;;;;;;6.07;3.20;;;;;;;18.50;42.17;98341.53;8418478;28;20227;-76
2022/07/16 01:58:28;;;;;;;4.60;3.10;;;;;;;18.35;42.51;98340.84;8418287;28;20233;-75
2022/07/16 02:02:31;;;;;;;5.40;3.47;;;;;;;18.28;42.47;98348.31;8418211;28;20233;-76
2022/07/16 02:06:35;;;;;;;6.83;3.37;;;;;;;18.31;42.63;98342.00;8417943;28;20227;-75
2022/07/16 02:10:38;;;;;;;6.33;3.33;;;;;;;18.20;42.69;98345.38;8417888;28;20234;-75
2022/07/16 02:14:43;;;;;;;6.47;3.47;;;;;;;18.20;42.21;98345.38;8417872;28;20226;-76
2022/07/16 02:18:45;;;;;;;5.10;3.20;;;;;;;18.13;42.81;98347.56;8390377;28;20238;-76
2022/07/16 02:22:48;;;;;;;7.00;3.30;;;;;;;18.17;42.76;98338.56;8384190;28;20237;-75
2022/07/16 02:26:51;;;;;;;6.00;3.30;;;;;;;18.19;42.43;98341.06;8384604;28;20426;-75
2022/07/16 02:30:56;;;;;;;7.00;3.10;;;;;;;18.13;42.45;98342.34;8384153;28;20239;-75
2022/07/16 02:34:58;;;;;;;6.30;3.30;;;;;;;18.04;42.78;98340.34;8384098;28;20228;-76
2022/07/16 02:39:01;;;;;;;4.10;3.27;;;;;;;18.05;42.77;98342.03;8383802;28;20231;-75
2022/07/16 02:43:06;;;;;;;7.93;3.13;;;;;;;17.98;42.93;98340.78;8384033;28;20258;-75
2022/07/16 02:47:10;;;;;;;5.10;3.33;;;;;;;17.96;43.18;98338.25;8383739;28;20262;-76
2022/07/16 02:51:13;;;;;;;5.13;3.20;;;;;;;17.97;42.96;98339.94;8383551;28;20237;-76
2022/07/16 02:55:17;;;;;;;6.03;2.90;;;;;;;17.87;42.80;98333.66;8383681;28;20223;-75
2022/07/16 02:59:19;;;;;;;5.27;3.03;;;;;;;17.85;43.12;98335.53;8398549;28;20238;-75
2022/07/16 03:03:23;;;;;;;5.23;3.27;;;;;;;17.88;43.10;98340.56;8416477;28;20226;-76
2022/07/16 03:07:26;;;;;;;5.97;3.07;;;;;;;17.80;43.27;98337.63;8416185;28;20407;-75
2022/07/16 03:11:29;;;;;;;5.87;3.23;;;;;;;17.68;43.20;98339.25;8416015;28;20253;-75
2022/07/16 03:15:32;;;;;;;4.13;3.00;;;;;;;17.68;43.45;98352.34;8415839;28;20522;-75
2022/07/16 03:19:36;;;;;;;5.50;2.93;;;;;;;17.65;43.25;98352.59;8415723;28;20238;-76
2022/07/16 03:23:39;;;;;;;5.33;2.83;;;;;;;17.65;42.99;98349.09;8415617;28;20236;-76
2022/07/16 03:27:42;;;;;;;8.03;3.10;;;;;;;17.60;43.31;98346.81;8415313;28;20415;-76
2022/07/16 03:31:44;;;;;;;4.90;3.13;;;;;;;17.41;43.42;98360.28;8414901;28;20238;-75
2022/07/16 03:35:49;;;;;;;4.93;3.03;;;;;;;17.49;43.64;98367.63;8414831;28;20222;-74
2022/07/16 03:39:52;;;;;;;7.13;3.10;;;;;;;17.36;43.79;98364.97;8414635;28;20234;-75
2022/07/16 03:43:54;;;;;;;6.77;3.23;;;;;;;17.38;43.56;98373.56;8414751;28;20234;-75
2022/07/16 03:47:57;;;;;;;5.77;3.30;;;;;;;17.30;44.05;98370.63;8414628;28;20242;-75
2022/07/16 03:52:01;;;;;;;4.30;3.17;;;;;;;17.37;44.14;98374.50;8403330;28;20226;-75
2022/07/16 03:56:05;;;;;;;4.50;3.27;;;;;;;17.34;44.47;98379.94;8397196;28;20413;-75
2022/07/16 04:00:10;;;;;;;7.20;3.17;;;;;;;17.33;44.73;98381.72;8399752;28;20226;-75
2022/07/16 04:04:13;;;;;;;7.37;3.00;;;;;;;17.43;44.58;98388.97;8380946;28;20227;-75
2022/07/16 04:08:17;;;;;;;4.47;2.93;;;;;;;17.51;44.86;98381.44;8380832;28;20227;-75
2022/07/16 04:12:23;;;;;;;7.53;2.80;;;;;;;17.51;45.09;98387.53;8380812;28;20276;-75
2022/07/16 04:16:25;;;;;;;5.47;2.97;;;;;;;17.48;45.14;98392.16;8380718;28;20231;-75
2022/07/16 04:20:28;;;;;;;3.43;2.53;;;;;;;17.56;45.03;98400.31;8380254;28;20254;-75
2022/07/16 04:24:32;;;;;;;5.43;2.97;;;;;;;17.54;44.85;98395.19;8380601;28;20534;-75
2022/07/16 04:28:35;;;;;;;4.53;3.00;;;;;;;17.55;45.00;98396.88;8380206;28;20227;-75
2022/07/16 04:32:39;;;;;;;4.67;2.80;;;;;;;17.57;44.91;98394.13;8380359;28;20234;-75
2022/07/16 04:36:42;;;;;;;8.00;3.20;;;;;;;17.63;44.77;98398.13;8380228;28;20604;-75
2022/07/16 04:40:46;;;;;;;6.47;3.43;;;;;;;17.70;44.82;98386.31;8379718;28;20407;-75
2022/07/16 04:44:49;;;;;;;5.67;3.40;;;;;;;17.71;44.89;98386.22;8378869;28;20430;-74
2022/07/16 04:48:51;;;;;;;5.87;2.80;;;;;;;17.84;44.61;98395.84;8380112;28;20269;-74
2022/07/16 04:52:54;;;;;;;7.77;3.60;;;;;;;17.86;44.57;98400.09;8379682;28;20337;-75
2022/07/16 04:56:58;;;;;;;7.43;3.37;;;;;;;17.92;44.56;98397.06;8379761;28;20234;-75
2022/07/16 05:01:01;;;;;;;6.07;3.50;;;;;;;17.98;44.75;98396.63;8409270;28;20242;-75
2022/07/16 05:05:05;;;;;;;8.07;2.90;;;;;;;18.06;44.80;98397.91;8413039;28;20240;-74
2022/07/16 05:09:08;;;;;;;6.23;2.83;;;;;;;18.09;44.42;98402.94;8413049;28;20230;-75
2022/07/16 05:13:12;;;;;;;5.13;3.20;;;;;;;18.19;44.44;98401.38;8412984;28;20422;-75
2022/07/16 05:17:16;;;;;;;8.53;3.47;;;;;;;18.23;44.65;98412.47;8412664;28;20223;-74
2022/07/16 05:21:19;;;;;;;7.73;3.50;;;;;;;18.05;44.53;98398.81;8412735;28;20227;-75
2022/07/16 05:25:24;;;;;;;5.13;3.20;;;;;;;18.31;43.80;98402.28;8412636;28;20229;-74
2022/07/16 05:29:29;;;;;;;7.20;3.20;;;;;;;18.59;43.38;98403.00;8412674;28;20223;-75
2022/07/16 05:33:32;;;;;;;10.50;3.00;;;;;;;18.79;43.29;98402.44;8412646;28;20231;-76
2022/07/16 05:37:35;;;;;;;5.63;2.90;;;;;;;18.84;43.31;98402.97;8412722;28;20227;-76
2022/07/16 05:41:38;;;;;;;8.03;3.13;;;;;;;18.85;43.51;98407.28;8412371;28;20231;-76
2022/07/16 05:45:42;;;;;;;5.90;2.90;;;;;;;18.98;43.40;98409.00;8412396;28;20230;-76
2022/07/16 05:49:44;;;;;;;8.23;3.30;;;;;;;18.97;43.40;98412.59;8412306;28;20226;-75
2022/07/16 05:53:47;;;;;;;6.10;2.83;;;;;;;18.97;42.88;98416.06;8412605;28;20408;-74
2022/07/16 05:57:50;;;;;;;4.90;2.90;;;;;;;19.13;42.25;98416.63;8417860;28;20233;-75
2022/07/16 06:01:54;;;;;;;6.47;3.20;;;;;;;19.70;40.91;98417.72;8417837;28;20227;-75
2022/07/16 06:05:57;;;;;;;4.17;2.50;;;;;;;20.20;42.57;98419.28;8417838;28;20229;-75
2022/07/16 06:10:00;;;;;;;5.03;3.10;;;;;;;19.93;39.79;98420.41;8392129;28;20235;-75
2022/07/16 06:14:03;;;;;;;5.50;3.40;;;;;;;19.99;39.97;98421.75;8387343;28;20420;-75
2022/07/16 06:18:08;;;;;;;6.77;3.47;;;;;;;20.07;40.52;98422.84;8384534;28;20231;-75
2022/07/16 06:22:11;;;;;;;6.87;3.27;;;;;;;20.21;40.21;98426.22;8383845;28;20227;-75
2022/07/16 06:26:14;;;;;;;6.80;2.87;;;;;;;20.42;39.73;98434.25;8383960;28;20227;-74
2022/07/16 06:30:17;;;;;;;8.73;3.37;;;;;;;20.56;40.50;98434.03;8383935;28;20227;-75
2022/07/16 06:34:21;;;;;;;5.23;3.00;;;;;;;20.64;40.24;98431.66;8383645;28;20228;-73
2022/07/16 06:38:24;;;;;;;8.53;2.90;;;;;;;20.87;39.51;98432.47;8383453;28;20231;-73
2022/07/16 06:42:27;;;;;;;5.20;2.90;;;;;;;20.88;39.13;98434.13;8383086;28;20227;-73
2022/07/16 06:46:30;;;;;;;7.27;2.43;;;;;;;21.16;39.09;98439.00;8383152;28;20234;-73
2022/07/16 06:50:34;;;;;;;4.60;2.80;;;;;;;21.36;39.18;98446.13;8383515;28;20234;-73
2022/07/16 06:54:37;;;;;;;10.50;3.00;;;;;;;21.44;38.29;98438.47;8383195;28;20227;-73
2022/07/16 06:58:40;;;;;;;6.60;2.20;;;;;;;21.73;37.73;98450.22;8392936;28;20234;-73
2022/07/16 07:02:43;;;;;;;5.10;2.57;;;;;;;21.81;37.02;98451.25;8416146;28;20236;-73
2022/07/16 07:06:51;;;;;;;5.37;2.50;;;;;;;22.04;35.70;98453.78;8414786;28;20231;-72
2022/07/16 07:10:55;;;;;;;7.67;2.60;;;;;;;22.30;35.61;98453.41;8415870;28;20460;-73
2022/07/16 07:14:58;;;;;;;6.13;2.13;;;;;;;22.48;34.43;98451.81;8415862;28;20430;-73
2022/07/16 07:19:00;;;;;;;5.13;2.40;;;;;;;22.79;34.42;98442.09;8397900;28;20231;-72
2022/07/16 07:23:07;;;;;;;4.77;2.10;;;;;;;22.98;32.63;98441.34;8389358;28;20234;-71
2022/07/16 07:27:10;;;;;;;6.13;1.97;;;;;;;23.20;32.39;98432.34;8407627;28;20229;-72
2022/07/16 07:31:13;;;;;;;5.53;2.00;;;;;;;23.05;30.73;98439.00;8398620;28;20419;-73
2022/07/16 07:35:21;;;;;;;5.03;1.40;;;;;;;23.02;30.72;98428.69;8381853;28;20226;-72
2022/07/16 07:39:26;;;;;;;5.80;1.80;;;;;;;23.63;30.80;98432.97;8388573;28;20227;-72
2022/07/16 07:43:28;;;;;;;6.30;1.40;;;;;;;23.61;28.79;98430.44;8397435;28;20244;-71
2022/07/16 07:47:31;;;;;;;4.77;1.63;;;;;;;24.05;28.88;98429.19;8399891;28;20534;-73
2022/07/16 07:51:34;;;;;;;3.53;1.50;;;;;;;23.94;29.90;98431.00;8392157;28;20233;-73
2022/07/16 07:55:39;;;;;;;3.93;1.70;;;;;;;24.48;29.60;98428.63;8381094;28;20550;-75
2022/07/16 07:59:41;;;;;;;6.20;2.33;;;;;;;24.86;31.56;98423.34;8399438;28;20541;-74
2022/07/16 08:03:44;;;;;;;9.90;2.10;;;;;;;24.74;28.56;98425.34;8414128;28;20244;-74
2022/07/16 08:07:47;;;;;;;4.97;1.90;;;;;;;25.21;28.77;98427.03;8410667;28;20242;-74
2022/07/16 08:11:51;;;;;;;6.87;2.40;;;;;;;25.26;28.10;98419.50;8384862;28;20251;-74
2022/07/16 08:15:54;;;;;;;5.53;1.90;;;;;;;25.34;29.77;98430.19;8386427;28;20238;-74
2022/07/16 08:19:57;;;;;;;8.40;1.83;;;;;;;25.62;28.58;98433.59;8403237;28;20261;-75
2022/07/16 08:28:22;;;;;;;3.40;1.60;;;;;;;25.99;26.29;98429.09;8380520;28;20235;-74
2022/07/16 08:32:25;;;;;;;4.47;1.60;;;;;;;26.12;25.85;98433.03;8385423;28;20526;-74
2022/07/16 08:36:28;;;;;;;4.50;1.70;;;;;;;26.02;26.01;98429.63;8396478;28;20427;-75
2022/07/16 08:40:33;;;;;;;5.23;1.63;;;;;;;26.03;26.27;98441.91;8382819;28;20293;-73
2022/07/16 08:44:39;;;;;;;5.63;1.70;;;;;;;26.59;25.72;98429.16;8379931;28;20250;-73
2022/07/16 08:48:43;;;;;;;4.40;1.60;;;;;;;26.74;25.70;98431.22;8380145;28;20509;-73
2022/07/16 08:52:50;;;;;;;4.50;1.70;;;;;;;26.82;26.22;98433.91;8380117;28;20232;-73
2022/07/16 08:56:53;;;;;;;2.80;1.37;;;;;;;27.27;25.63;98419.47;8379515;28;20231;-72
2022/07/16 09:00:57;;;;;;;6.90;1.63;;;;;;;26.92;25.22;98430.16;8408642;28;20241;-72
2022/07/16 09:05:00;;;;;;;4.13;1.50;;;;;;;27.39;25.67;98427.94;8412876;28;20343;-72
2022/07/16 09:09:04;;;;;;;3.30;1.43;;;;;;;27.73;25.21;98424.31;8402156;28;20231;-76
2022/07/16 09:13:10;;;;;;;2.90;1.27;;;;;;;27.93;25.23;98420.38;8379456;28;20281;-72
2022/07/16 09:17:14;;;;;;;5.80;1.70;;;;;;;27.91;24.91;98429.50;8379653;28;20229;-74
2022/07/16 09:21:17;;;;;;;4.73;1.50;;;;;;;28.18;24.77;98430.94;8379507;28;20291;-73
2022/07/16 09:25:20;;;;;;;3.73;1.50;;;;;;;27.20;24.67;98431.72;8379500;28;20526;-73
2022/07/16 09:29:23;;;;;;;3.97;1.70;;;;;;;26.76;26.23;98430.06;8381675;28;20235;-73
2022/07/16 09:33:27;;;;;;;5.67;1.60;;;;;;;26.87;25.69;98432.44;8385674;28;20231;-73
2022/07/16 09:37:45;;;;;;;2.50;1.20;;;;;;;28.22;24.19;98437.63;8385246;28;20232;-73
2022/07/16 09:41:48;;;;;;;4.07;1.40;;;;;;;28.39;23.66;98427.78;8384740;28;20240;-73
2022/07/16 09:45:58;;;;;;;4.90;1.30;;;;;;;28.87;23.10;98423.28;8385142;28;20237;-73
2022/07/16 09:50:02;;;;;;;3.87;1.20;;;;;;;29.04;22.48;98418.72;8385366;28;20234;-74
2022/07/16 09:54:05;;;;;;;4.00;1.30;;;;;;;29.41;23.09;98428.66;8385337;28;20531;-74
2022/07/16 09:58:08;;;;;;;3.73;1.57;;;;;;;28.70;21.75;98417.19;8390322;28;20239;-74
2022/07/16 10:02:11;;;;;;;3.50;1.60;;;;;;;27.90;23.72;98426.00;8418111;28;20290;-74
2022/07/16 10:06:15;;;;;;;4.17;2.40;;;;;;;28.85;22.75;98425.28;8418094;28;20305;-74
2022/07/16 10:10:18;;;;;;;3.17;1.33;;;;;;;29.41;21.24;98422.50;8417890;28;20239;-72
2022/07/16 10:14:21;;;;;;;3.40;1.27;;;;;;;29.53;21.35;98423.75;8417690;28;20240;-72
2022/07/16 10:18:32;;;;;;;3.77;1.40;;;;;;;28.53;22.48;98427.06;8406228;28;20233;-74
2022/07/16 10:22:38;;;;;;;2.70;1.30;;;;;;;27.96;23.99;98424.50;8403173;28;20234;-74
2022/07/16 10:26:42;;;;;;;3.37;1.20;;;;;;;27.66;24.13;98422.34;8417782;28;20235;-76
2022/07/16 10:30:45;;;;;;;2.80;1.20;;;;;;;27.92;24.79;98421.34;8411700;28;20240;-76
2022/07/16 10:34:47;;;;;;;2.70;1.37;;;;;;;27.30;25.10;98430.59;8395887;28;20241;-74
2022/07/16 10:39:05;;;;;;;3.33;1.50;;;;;;;26.77;26.23;98423.78;8416272;28;20246;-74
2022/07/16 10:43:15;;;;;;;4.07;1.50;;;;;;;28.54;23.54;98428.75;8382602;28;20236;-75
2022/07/16 10:47:19;;;;;;;4.63;1.40;;;;;;;28.49;23.38;98414.25;8383796;28;20238;-75
2022/07/16 10:51:22;;;;;;;4.47;1.60;;;;;;;28.06;24.34;98426.00;8405442;28;20228;-76
2022/07/16 10:55:47;;;;;;;4.67;1.60;;;;;;;26.77;25.46;98423.78;8416810;28;20522;-77
2022/07/16 10:59:51;;;;;;;6.57;1.63;;;;;;;28.42;24.36;98425.56;8405239;28;20492;-77
2022/07/16 11:03:54;;;;;;;5.10;1.60;;;;;;;28.10;24.49;98426.47;8416096;28;20239;-73
2022/07/16 11:08:07;;;;;;;3.57;1.40;;;;;;;28.51;24.32;98425.56;8390889;28;20227;-75
2022/07/16 11:12:16;;;;;;;3.90;1.40;;;;;;;27.34;24.21;98427.59;8382878;28;20500;-75
2022/07/16 11:16:19;;;;;;;2.67;1.20;;;;;;;27.73;25.27;98438.44;8382452;28;20314;-75
2022/07/16 11:20:22;;;;;;;2.00;1.30;;;;;;;27.72;24.71;98431.47;8382573;28;20554;-74
2022/07/16 11:24:25;;;;;;;2.10;1.13;;;;;;;27.33;24.90;98436.59;8385249;28;20235;-73
2022/07/16 11:28:30;;;;;;;3.47;1.50;;;;;;;27.05;25.75;98428.84;8386053;28;20232;-73
2022/07/16 11:32:33;;;;;;;3.43;1.37;;;;;;;26.78;25.63;98435.22;8382963;28;20235;-73
2022/07/16 11:36:37;;;;;;;3.07;1.30;;;;;;;26.75;25.53;98435.53;8381931;28;20414;-73
2022/07/16 11:40:41;;;;;;;2.03;1.10;;;;;;;28.26;25.46;98429.13;8381676;28;20235;-73
2022/07/16 11:44:46;;;;;;;3.23;1.33;;;;;;;27.56;25.46;98429.63;8381715;28;20255;-73
2022/07/16 11:48:49;;;;;;;3.43;1.30;;;;;;;27.39;25.81;98434.09;8381330;28;20227;-73
2022/07/16 11:52:52;;;;;;;5.43;1.30;;;;;;;28.18;24.89;98438.94;8381176;28;20251;-73
2022/07/16 11:56:56;;;;;;;3.43;1.53;;;;;;;28.60;24.68;98437.88;8381408;28;20231;-73
2022/07/16 12:01:00;;;;;;;2.80;1.20;;;;;;;27.84;24.45;98435.47;8410163;28;20235;-73
2022/07/16 12:05:04;;;;;;;2.30;1.40;;;;;;;27.24;24.96;98436.53;8414126;28;20249;-73
2022/07/16 12:09:07;;;;;;;4.70;1.60;;;;;;;27.21;25.43;98436.88;8414063;28;20247;-73
2022/07/16 12:13:11;;;;;;;3.30;1.40;;;;;;;26.67;25.81;98437.19;8413935;28;20233;-73
2022/07/16 12:17:31;;;;;;;2.30;1.37;;;;;;;27.23;25.65;98426.06;8413921;28;20233;-73
2022/07/16 12:21:37;;;;;;;2.63;1.30;;;;;;;27.67;25.00;98431.97;8414033;28;20234;-73
2022/07/16 12:25:41;;;;;;;3.87;1.40;;;;;;;27.14;24.71;98435.84;8413947;28;20234;-73
2022/07/16 12:29:45;;;;;;;4.10;1.20;;;;;;;28.28;23.77;98435.09;8413566;28;20230;-73
2022/07/16 12:33:51;;;;;;;3.40;1.37;;;;;;;28.27;24.03;98422.81;8413120;28;20256;-72
2022/07/16 12:37:55;;;;;;;3.60;1.70;;;;;;;27.43;24.67;98432.75;8413170;28;20262;-73
2022/07/16 12:41:58;;;;;;;3.83;1.23;;;;;;;26.65;25.28;98444.47;8413147;28;20234;-73
2022/07/16 12:46:01;;;;;;;7.03;1.70;;;;;;;26.63;26.35;98448.28;8413361;28;20245;-73
2022/07/16 12:50:07;;;;;;;5.13;1.50;;;;;;;26.65;25.99;98452.44;8413194;28;20498;-73
2022/07/16 12:54:11;;;;;;;2.67;1.60;;;;;;;27.22;25.37;98437.69;8413084;28;20238;-73
2022/07/16 13:02:34;;;;;;;7.27;1.53;;;;;;;26.46;26.37;98448.16;8413290;28;20238;-73
2022/07/16 13:06:38;;;;;;;5.97;1.57;;;;;;;26.08;26.66;98449.41;8418906;28;20227;-73
2022/07/16 13:10:41;;;;;;;5.87;1.70;;;;;;;26.99;26.03;98440.94;8419854;28;20228;-73
2022/07/16 13:14:44;;;;;;;5.97;1.60;;;;;;;27.86;24.43;98446.75;8419745;28;20236;-73
2022/07/16 13:18:50;;;;;;;2.40;1.50;;;;;;;27.41;24.80;98442.75;8418936;28;20227;-73
2022/07/16 13:22:54;;;;;;;4.80;1.63;;;;;;;27.04;24.99;98438.66;8419204;28;20245;-73
2022/07/16 13:26:57;;;;;;;6.53;1.60;;;;;;;26.73;26.04;98451.63;8419297;28;20237;-73
2022/07/16 13:31:21;;;;;;;3.40;1.40;;;;;;;26.41;26.08;98447.81;8419176;28;20250;-73
2022/07/16 13:35:24;;;;;;;4.50;1.70;;;;;;;26.33;26.43;98445.09;8419037;28;20431;-73
2022/07/16 13:39:29;;;;;;;5.27;1.60;;;;;;;26.15;26.24;98445.16;8418754;28;20240;-73
2022/07/16 13:43:34;;;;;;;5.33;1.70;;;;;;;26.63;26.13;98448.28;8418532;28;20296;-74
2022/07/16 13:47:37;;;;;;;4.87;1.70;;;;;;;27.52;24.31;98433.63;8418450;28;20232;-73
2022/07/16 13:51:40;;;;;;;5.53;1.73;;;;;;;27.96;24.40;98437.81;8418464;28;20235;-73
2022/07/16 13:55:47;;;;;;;2.30;1.30;;;;;;;27.54;24.19;98436.94;8418416;28;20234;-73
2022/07/16 13:59:51;;;;;;;3.03;1.67;;;;;;;28.08;24.28;98442.63;8417924;28;20529;-72
2022/07/16 14:03:54;;;;;;;6.23;1.90;;;;;;;28.46;23.91;98434.06;8418114;28;20429;-73
2022/07/16 14:07:57;;;;;;;4.20;1.70;;;;;;;27.94;24.77;98431.84;8417967;28;20242;-72
2022/07/16 14:12:02;;;;;;;4.07;1.53;;;;;;;27.14;24.21;98435.03;8418167;28;20239;-72
2022/07/16 14:16:05;;;;;;;5.00;1.80;;;;;;;26.85;23.64;98439.75;8417762;28;20233;-73
2022/07/16 14:20:10;;;;;;;4.73;1.73;;;;;;;27.83;23.50;98444.44;8417897;28;20234;-73
2022/07/16 14:24:13;;;;;;;3.03;1.80;;;;;;;28.01;23.57;98438.16;8417603;28;20271;-73
2022/07/16 14:28:17;;;;;;;4.03;1.50;;;;;;;28.47;23.19;98427.75;8417505;28;20227;-73
2022/07/16 14:32:20;;;;;;;2.73;1.63;;;;;;;28.49;22.66;98425.72;8417311;28;20227;-73
2022/07/16 14:36:23;;;;;;;4.17;1.67;;;;;;;28.62;22.10;98427.91;8417146;28;20234;-73
2022/07/16 14:40:26;;;;;;;3.00;1.60;;;;;;;28.74;22.97;98439.81;8416923;28;20557;-73
2022/07/16 14:44:31;;;;;;;7.97;1.50;;;;;;;27.54;22.57;98433.47;8416834;28;20263;-73
2022/07/16 14:48:33;;;;;;;6.43;1.73;;;;;;;27.95;22.23;98429.00;8416711;28;20239;-73
2022/07/16 14:52:36;;;;;;;6.13;1.60;;;;;;;27.80;23.00;98425.31;8416317;28;20436;-74
2022/07/16 14:56:40;;;;;;;3.03;1.47;;;;;;;27.47;24.31;98439.44;8416352;28;20238;-73
2022/07/16 15:00:44;;;;;;;3.47;1.77;;;;;;;27.65;23.49;98438.47;8416230;28;20235;-73
2022/07/16 15:04:47;;;;;;;3.97;1.33;;;;;;;27.17;24.54;98437.34;8415697;28;20527;-72
2022/07/16 15:08:50;;;;;;;4.90;1.83;;;;;;;26.68;24.32;98441.50;8416158;28;20241;-73
2022/07/16 15:12:53;;;;;;;5.03;1.60;;;;;;;27.05;23.73;98432.31;8415953;28;20234;-73
2022/07/16 15:16:58;;;;;;;3.67;1.40;;;;;;;26.49;23.27;98431.91;8415836;28;20235;-72
2022/07/16 15:21:00;;;;;;;3.10;1.40;;;;;;;26.23;24.54;98431.91;8415508;28;20428;-72
2022/07/16 15:25:04;;;;;;;5.57;1.70;;;;;;;25.93;25.37;98444.66;8415664;28;20239;-72
2022/07/16 15:29:07;;;;;;;2.77;1.60;;;;;;;26.68;24.98;98433.53;8414662;28;20243;-72
2022/07/16 15:37:40;;;;;;;2.23;1.53;;;;;;;26.99;24.91;98432.16;8415157;28;20291;-73
2022/07/16 15:41:43;;;;;;;2.83;1.60;;;;;;;26.58;25.22;98437.25;8414990;28;20556;-73
2022/07/16 15:45:46;;;;;;;3.30;1.50;;;;;;;26.82;24.96;98433.91;8414778;28;20359;-73
2022/07/16 15:49:50;;;;;;;3.53;1.50;;;;;;;27.00;25.12;98436.47;8414441;28;20465;-73
2022/07/16 15:53:54;;;;;;;6.33;1.90;;;;;;;27.14;25.02;98430.53;8414546;28;20426;-73
2022/07/16 15:57:57;;;;;;;4.00;1.70;;;;;;;26.52;25.88;98454.66;8414526;28;20236;-73
2022/07/16 16:01:59;;;;;;;3.37;1.67;;;;;;;26.13;25.73;98452.44;8414499;28;20518;-73
2022/07/16 16:06:04;;;;;;;3.90;1.53;;;;;;;26.66;25.10;98450.63;8414201;28;20239;-73
2022/07/16 16:10:08;;;;;;;4.90;1.77;;;;;;;26.85;25.17;98445.06;8413874;28;21840;-73
2022/07/16 16:14:11;;;;;;;4.40;1.73;;;;;;;27.14;25.26;98445.66;8413973;28;20236;-73
2022/07/16 16:18:15;;;;;;;4.73;2.83;;;;;;;26.86;24.92;98444.03;8413889;28;20267;-73
2022/07/16 16:22:19;;;;;;;4.00;2.87;;;;;;;27.05;24.50;98439.47;8413675;28;20228;-73
2022/07/16 16:26:22;;;;;;;4.13;1.60;;;;;;;27.01;24.69;98440.78;8413468;28;20250;-73
2022/07/16 16:30:25;;;;;;;3.03;2.20;;;;;;;27.30;25.29;98433.28;8413480;28;20338;-73
2022/07/16 16:34:28;;;;;;;4.77;1.70;;;;;;;26.97;24.88;98448.25;8413479;28;20243;-73
2022/07/16 16:38:32;;;;;;;7.83;1.67;;;;;;;26.64;24.98;98444.63;8413164;28;20249;-74
2022/07/16 16:42:35;;;;;;;6.23;1.40;;;;;;;26.55;25.26;98456.19;8413253;28;20529;-74
2022/07/16 16:46:38;;;;;;;4.07;1.63;;;;;;;26.48;25.74;98458.63;8413332;28;20237;-73
2022/07/16 16:50:41;;;;;;;4.23;1.60;;;;;;;26.16;26.76;98457.44;8413292;28;20428;-73
2022/07/16 16:54:45;;;;;;;4.00;1.80;;;;;;;26.18;26.39;98458.13;8413274;28;20247;-73
2022/07/16 16:58:48;;;;;;;4.17;1.60;;;;;;;26.08;26.51;98468.84;8412825;28;20230;-73
2022/07/16 17:02:51;;;;;;;8.90;1.80;;;;;;;25.85;26.70;98467.59;8413251;28;20231;-72
2022/07/16 17:06:54;;;;;;;7.67;1.90;;;;;;;25.77;26.77;98481.63;8412841;28;20241;-73
2022/07/16 17:10:59;;;;;;;4.33;1.90;;;;;;;25.81;26.35;98474.19;8413331;28;20240;-73
2022/07/16 17:15:10;;;;;;;7.93;1.90;;;;;;;25.63;26.77;98467.09;8413081;28;20341;-74
2022/07/16 17:19:12;;;;;;;3.40;1.90;;;;;;;25.60;26.88;98469.22;8412937;28;20228;-73
2022/07/16 17:23:15;;;;;;;4.33;1.57;;;;;;;25.51;26.91;98468.28;8412793;28;20227;-73
2022/07/16 17:27:21;;;;;;;2.60;1.50;;;;;;;25.49;27.04;98464.94;8412466;28;20274;-73
2022/07/16 17:31:23;;;;;;;4.60;1.80;;;;;;;25.45;27.82;98469.72;8411789;28;20228;-73
2022/07/16 17:35:27;;;;;;;4.23;1.73;;;;;;;25.27;28.01;98472.38;8412793;28;20237;-73
2022/07/16 17:39:29;;;;;;;4.90;1.97;;;;;;;25.34;27.87;98470.78;8412336;28;20238;-73
2022/07/16 17:43:34;;;;;;;3.57;1.73;;;;;;;25.18;27.51;98478.53;8412556;28;20532;-73
2022/07/16 17:47:37;;;;;;;4.13;1.73;;;;;;;25.13;28.28;98478.13;8412411;28;20239;-73
2022/07/16 17:51:40;;;;;;;3.40;1.60;;;;;;;25.26;27.99;98480.47;8416083;28;20243;-73
2022/07/16 17:55:44;;;;;;;4.73;1.90;;;;;;;25.24;28.53;98482.44;8418270;28;20230;-73
2022/07/16 17:59:48;;;;;;;4.60;1.80;;;;;;;25.18;28.42;98484.66;8418193;28;20234;-73
2022/07/16 18:03:51;;;;;;;4.80;1.80;;;;;;;25.16;28.80;98488.44;8417856;28;20229;-73
2022/07/16 18:07:54;;;;;;;3.43;2.03;;;;;;;25.18;28.85;98495.25;8417998;28;20235;-73
2022/07/16 18:11:57;;;;;;;10.00;6.03;;;;;;;25.16;29.55;98499.03;8417564;28;20241;-72
2022/07/16 18:16:02;;;;;;;7.77;5.10;;;;;;;25.00;29.16;98499.69;8417886;28;20241;-73
2022/07/16 18:20:06;;;;;;;3.90;2.07;;;;;;;24.92;29.38;98500.41;8417518;28;20234;-73
2022/07/16 18:24:10;;;;;;;2.80;1.70;;;;;;;24.90;29.18;98512.13;8417715;28;20238;-72
2022/07/16 18:28:14;;;;;;;4.03;1.97;;;;;;;24.88;29.63;98512.25;8417593;28;20246;-73
2022/07/16 18:32:19;;;;;;;2.47;1.70;;;;;;;24.91;29.50;98519.09;8417593;28;20234;-73
2022/07/16 18:36:22;;;;;;;1.80;1.50;;;;;;;24.81;29.75;98516.50;8417245;28;20410;-72
2022/07/16 18:40:25;;;;;;;5.87;1.83;;;;;;;24.74;30.13;98518.03;8416760;28;20227;-72
2022/07/16 18:44:28;;;;;;;3.80;1.90;;;;;;;24.68;30.34;98529.22;8416931;28;20235;-72
2022/07/16 18:48:33;;;;;;;3.33;1.83;;;;;;;24.66;30.52;98534.66;8416813;28;20237;-72
2022/07/16 18:52:36;;;;;;;6.43;2.00;;;;;;;24.54;30.67;98541.09;8416789;28;20414;-72
2022/07/16 18:56:39;;;;;;;2.57;1.70;;;;;;;24.50;30.62;98537.88;8416443;28;20239;-73
2022/07/16 19:00:42;;;;;;;4.60;1.70;;;;;;;24.45;30.49;98545.41;8416039;28;20399;-73
2022/07/16 19:04:47;;;;;;;1.80;1.50;;;;;;;24.39;30.36;98553.91;8415345;28;20249;-73
2022/07/16 19:08:50;;;;;;;4.37;1.80;;;;;;;24.31;30.81;98551.97;8415375;28;20226;-72
2022/07/16 19:12:53;;;;;;;2.77;1.93;;;;;;;24.24;31.10;98556.16;8415660;28;20242;-72
2022/07/16 19:16:56;;;;;;;2.63;1.50;;;;;;;24.14;30.99;98563.25;8415781;28;20230;-72
2022/07/16 19:21:01;;;;;;;1.80;1.50;;;;;;;24.10;31.18;98567.16;8415050;28;20276;-72
2022/07/16 19:25:04;;;;;;;2.83;1.60;;;;;;;24.07;31.38;98576.22;8415144;28;20307;-73